Time;durP1;ratioP1;P1;durP2;ratioP2;P2;SDS_P1;SDS_P2;PMS_P1;PMS_P2;Temp;Humidity;BMP_temperature;BMP_pressure;BME280_temperature;BME280_humidity;BME280_pressure;Samples;Min_cycle;Max_cycle;Signal;HPM_P1;HPM_P2
2024/03/13 00:02:18;;;;;;;27.23;15.57;;;6.90;99.90;;;;;;7379395;19;20010;-76
2024/03/13 00:04:48;;;;;;;21.92;12.93;;;6.90;99.90;;;;;;7376719;19;20826;-74
2024/03/13 00:07:19;;;;;;;22.17;13.43;;;6.90;99.90;;;;;;7379164;19;20021;-74
2024/03/13 00:09:50;;;;;;;21.08;12.75;;;7.00;99.90;;;;;;7379298;19;20101;-73
2024/03/13 00:12:24;;;;;;;19.65;11.27;;;7.00;99.90;;;;;;7379461;19;20022;-74
2024/03/13 00:14:56;;;;;;;17.75;11.40;;;6.90;99.90;;;;;;7376586;19;20340;-74
2024/03/13 00:17:27;;;;;;;17.02;11.52;;;6.90;99.90;;;;;;7379264;19;20474;-75
2024/03/13 00:19:57;;;;;;;15.85;10.65;;;6.90;99.90;;;;;;7378803;19;20067;-75
2024/03/13 00:22:29;;;;;;;18.60;10.75;;;6.90;99.90;;;;;;7375316;19;20006;-75
2024/03/13 00:25:00;;;;;;;13.02;9.52;;;6.80;99.90;;;;;;7372319;19;20027;-73
2024/03/13 00:27:33;;;;;;;17.48;11.15;;;6.80;99.90;;;;;;7379495;19;20081;-73
2024/03/13 00:30:05;;;;;;;17.13;10.73;;;6.90;99.90;;;;;;7379318;19;20027;-74
2024/03/13 00:32:36;;;;;;;20.20;10.45;;;6.90;99.90;;;;;;7377651;19;20035;-77
2024/03/13 00:35:07;;;;;;;17.13;9.98;;;6.90;99.90;;;;;;7377609;19;20035;-75
2024/03/13 00:37:37;;;;;;;14.45;10.38;;;6.90;99.90;;;;;;7377648;19;20010;-74
2024/03/13 00:40:09;;;;;;;14.23;9.27;;;6.90;99.90;;;;;;7377536;19;20038;-74
2024/03/13 00:42:42;;;;;;;14.88;9.25;;;6.80;99.90;;;;;;7377888;19;20074;-74
2024/03/13 00:45:13;;;;;;;14.27;8.52;;;6.80;99.90;;;;;;7377557;19;20307;-74
2024/03/13 00:47:43;;;;;;;15.82;8.82;;;6.80;99.90;;;;;;7377755;19;20015;-74
2024/03/13 00:50:15;;;;;;;10.55;8.10;;;6.80;99.90;;;;;;7377918;19;20025;-73
2024/03/13 00:52:46;;;;;;;11.88;8.18;;;6.80;99.90;;;;;;7378491;19;20042;-75
2024/03/13 00:55:16;;;;;;;11.70;6.85;;;6.80;99.90;;;;;;7377288;19;20022;-74
2024/03/13 00:57:49;;;;;;;10.10;6.18;;;6.80;99.90;;;;;;7377713;19;20046;-75
2024/03/13 01:00:22;;;;;;;10.25;6.07;;;6.70;99.90;;;;;;7372119;19;20017;-73
2024/03/13 01:02:53;;;;;;;9.90;6.72;;;6.70;99.90;;;;;;7376027;19;20384;-74
2024/03/13 01:05:24;;;;;;;10.90;6.13;;;6.80;99.90;;;;;;7375060;19;20478;-72
2024/03/13 01:07:55;;;;;;;8.32;5.32;;;6.70;99.90;;;;;;7377462;19;20169;-73
2024/03/13 01:10:26;;;;;;;8.90;5.82;;;6.70;99.90;;;;;;7378302;19;20470;-73
2024/03/13 01:12:59;;;;;;;8.57;4.90;;;6.70;99.90;;;;;;7374423;19;19998;-72
2024/03/13 01:15:30;;;;;;;6.53;4.63;;;6.70;99.90;;;;;;7375125;19;20032;-74
2024/03/13 01:18:00;;;;;;;8.98;5.75;;;6.70;99.90;;;;;;7384208;19;20046;-74
2024/03/13 01:20:30;;;;;;;7.82;4.70;;;6.70;99.90;;;;;;7383714;19;20611;-72
2024/03/13 01:23:00;;;;;;;7.55;4.93;;;6.70;99.90;;;;;;7380886;19;20010;-73
2024/03/13 01:25:30;;;;;;;8.60;5.20;;;6.70;99.90;;;;;;7379224;19;20010;-74
2024/03/13 01:28:04;;;;;;;6.25;4.28;;;6.70;99.90;;;;;;7378959;19;20015;-74
2024/03/13 01:30:34;;;;;;;7.10;4.65;;;6.60;99.90;;;;;;7381712;19;20018;-74
2024/03/13 01:33:04;;;;;;;4.93;4.00;;;6.60;99.90;;;;;;7382501;19;20007;-74
2024/03/13 01:35:35;;;;;;;7.25;3.88;;;6.60;99.90;;;;;;7382251;19;20018;-73
2024/03/13 01:38:02;;;;;;;5.95;4.22;;;6.60;99.90;;;;;;7382936;19;20463;-74
2024/03/13 01:57:15;;;;;;;4.88;3.10;;;6.50;99.90;;;;;;7377762;19;20019;-73
2024/03/13 02:02:22;;;;;;;6.03;3.58;;;6.60;99.90;;;;;;7383137;19;20006;-73
2024/03/13 02:02:40;;;;;;;5.45;3.42;;;6.60;99.90;;;;;;7379636;19;20011;-74
2024/03/13 02:05:11;;;;;;;5.07;3.33;;;6.60;99.90;;;;;;7382089;19;20391;-73
2024/03/13 02:07:41;;;;;;;6.25;3.75;;;6.60;99.90;;;;;;7381895;19;20002;-74
2024/03/13 02:10:11;;;;;;;4.03;3.33;;;6.50;99.90;;;;;;7383430;19;20015;-73
2024/03/13 02:13:02;;;;;;;4.35;3.05;;;6.50;99.90;;;;;;7382474;19;20007;-73
2024/03/13 02:15:34;;;;;;;4.13;2.65;;;6.50;99.90;;;;;;7376772;19;20014;-73
2024/03/13 02:18:16;;;;;;;3.83;2.78;;;6.50;99.90;;;;;;7378811;19;20002;-74
2024/03/13 02:20:47;;;;;;;4.35;2.75;;;6.50;99.90;;;;;;7381629;19;20014;-73
2024/03/13 02:23:24;;;;;;;3.72;3.13;;;6.50;99.90;;;;;;7381420;19;20471;-72
2024/03/13 02:25:54;;;;;;;4.45;3.55;;;6.50;99.90;;;;;;7379997;19;20081;-72
2024/03/13 02:28:34;;;;;;;4.63;3.00;;;6.50;99.90;;;;;;7380275;19;20007;-72
2024/03/13 02:31:07;;;;;;;3.35;2.55;;;6.50;99.90;;;;;;7376947;19;20119;-72
2024/03/13 02:33:38;;;;;;;3.50;2.95;;;6.50;99.90;;;;;;7380272;19;20027;-72
2024/03/13 02:36:09;;;;;;;3.20;2.65;;;6.50;99.90;;;;;;7377270;19;20018;-71
2024/03/13 02:38:44;;;;;;;4.93;3.28;;;6.50;99.90;;;;;;7379311;19;20510;-71
2024/03/13 02:41:15;;;;;;;3.65;2.55;;;6.40;99.90;;;;;;7382184;19;20359;-71
2024/03/13 02:43:45;;;;;;;4.72;2.53;;;6.50;99.90;;;;;;7381049;19;20098;-71
2024/03/13 02:46:15;;;;;;;3.70;2.70;;;6.50;99.90;;;;;;7380026;19;20035;-71
2024/03/13 02:48:45;;;;;;;5.85;2.97;;;6.50;99.90;;;;;;7381738;19;20042;-71
2024/03/13 02:51:15;;;;;;;4.53;3.85;;;6.50;99.90;;;;;;7381380;19;20012;-72
2024/03/13 02:53:48;;;;;;;4.35;3.45;;;6.50;99.90;;;;;;7381991;19;20018;-71
2024/03/13 02:56:18;;;;;;;4.72;3.80;;;6.50;99.90;;;;;;7381540;19;20013;-72
2024/03/13 02:58:49;;;;;;;5.03;3.95;;;6.50;99.90;;;;;;7382504;19;20003;-73
2024/03/13 03:01:19;;;;;;;6.15;4.30;;;6.50;99.90;;;;;;7381814;19;20026;-72
2024/03/13 03:03:49;;;;;;;5.47;3.55;;;6.50;99.90;;;;;;7382604;19;20033;-72
2024/03/13 03:06:19;;;;;;;4.22;3.53;;;6.50;99.90;;;;;;7376352;19;20010;-72
2024/03/13 03:08:52;;;;;;;4.65;3.50;;;6.50;99.90;;;;;;7382145;19;20015;-72
2024/03/13 03:11:25;;;;;;;5.75;3.72;;;6.50;99.90;;;;;;7380747;19;20018;-73
2024/03/13 03:13:55;;;;;;;4.85;3.35;;;6.60;99.90;;;;;;7380297;19;20014;-72
2024/03/13 03:16:25;;;;;;;4.50;3.58;;;6.50;99.90;;;;;;7379673;19;20482;-72
2024/03/13 03:18:55;;;;;;;6.50;3.80;;;6.50;99.90;;;;;;7380526;19;20017;-72
2024/03/13 03:21:25;;;;;;;6.57;3.95;;;6.50;99.90;;;;;;7379392;19;20054;-72
2024/03/13 03:23:58;;;;;;;4.45;3.15;;;6.50;99.90;;;;;;7378413;19;20013;-72
2024/03/13 03:26:29;;;;;;;4.82;3.72;;;6.50;99.90;;;;;;7377918;19;20019;-72
2024/03/13 03:28:59;;;;;;;3.80;3.10;;;6.50;99.90;;;;;;7380391;19;20085;-72
2024/03/13 03:31:29;;;;;;;3.88;3.40;;;6.50;99.90;;;;;;7380509;19;20006;-72
2024/03/13 03:33:59;;;;;;;5.30;2.97;;;6.50;99.90;;;;;;7378964;19;20359;-71
2024/03/13 03:36:30;;;;;;;4.78;2.95;;;6.50;99.90;;;;;;7378828;19;20010;-72
2024/03/13 03:39:05;;;;;;;3.75;2.58;;;6.50;99.90;;;;;;7374997;19;20499;-73
2024/03/13 03:41:36;;;;;;;4.03;2.85;;;6.50;99.90;;;;;;7373558;19;20014;-73
2024/03/13 03:44:07;;;;;;;3.67;2.30;;;6.50;99.90;;;;;;7378116;19;20010;-73
2024/03/13 03:46:37;;;;;;;3.88;2.17;;;6.50;99.90;;;;;;7377437;19;20332;-72
2024/03/13 03:49:07;;;;;;;3.08;2.13;;;6.50;99.90;;;;;;7379623;19;20411;-72
2024/03/13 03:51:37;;;;;;;2.42;2.00;;;6.40;99.90;;;;;;7378420;19;20007;-72
2024/03/13 03:54:13;;;;;;;2.45;1.55;;;6.40;99.90;;;;;;7378540;19;20048;-73
2024/03/13 03:56:44;;;;;;;2.50;1.70;;;6.30;99.90;;;;;;7377364;19;20403;-71
2024/03/13 03:59:14;;;;;;;2.25;1.73;;;6.30;99.90;;;;;;7378579;19;20015;-71
2024/03/13 04:01:44;;;;;;;1.88;1.42;;;6.30;99.90;;;;;;7377710;19;20017;-71
2024/03/13 04:04:14;;;;;;;2.53;1.90;;;6.30;99.90;;;;;;7378481;19;20099;-71
2024/03/13 04:06:45;;;;;;;3.58;2.00;;;6.30;99.90;;;;;;7376894;19;20494;-71
2024/03/13 04:09:19;;;;;;;2.80;1.58;;;6.30;99.90;;;;;;7379224;19;20086;-71
2024/03/13 04:11:49;;;;;;;1.98;1.40;;;6.30;99.90;;;;;;7379214;19;20475;-71
2024/03/13 04:14:19;;;;;;;2.38;1.52;;;6.30;99.90;;;;;;7378931;19;20010;-70
2024/03/13 04:16:49;;;;;;;2.08;1.30;;;6.30;99.90;;;;;;7377121;19;20017;-71
2024/03/13 04:19:19;;;;;;;2.60;1.40;;;6.20;99.90;;;;;;7378293;19;20352;-72
2024/03/13 04:21:50;;;;;;;2.75;1.30;;;6.20;99.90;;;;;;7378083;19;20010;-71
2024/03/13 04:24:23;;;;;;;1.92;1.20;;;6.20;99.90;;;;;;7379351;19;20525;-71
2024/03/13 04:26:53;;;;;;;2.15;1.42;;;6.20;99.90;;;;;;7371569;19;20014;-72
2024/03/13 04:29:23;;;;;;;2.20;1.35;;;6.20;99.90;;;;;;7378384;19;20017;-72
2024/03/13 04:32:04;;;;;;;1.92;1.30;;;6.20;99.90;;;;;;7377214;19;20613;-72
2024/03/13 04:34:34;;;;;;;2.08;1.33;;;6.20;99.90;;;;;;7373539;19;20082;-72
2024/03/13 04:37:04;;;;;;;4.10;1.45;;;6.10;99.90;;;;;;7378006;19;20014;-72
2024/03/13 04:39:38;;;;;;;3.88;1.55;;;6.20;99.90;;;;;;7377630;19;20014;-72
2024/03/13 04:42:08;;;;;;;1.90;1.30;;;6.20;99.90;;;;;;7376683;19;20014;-71
2024/03/13 04:44:38;;;;;;;1.73;1.13;;;6.20;99.90;;;;;;7376351;19;20035;-72
2024/03/13 04:47:08;;;;;;;2.58;1.40;;;6.10;99.90;;;;;;7375248;19;20347;-71
2024/03/13 04:49:41;;;;;;;1.50;1.05;;;6.10;99.90;;;;;;7379154;19;20010;-72
2024/03/13 04:52:11;;;;;;;2.53;1.30;;;6.20;99.90;;;;;;7376065;19;20007;-71
2024/03/13 04:54:44;;;;;;;1.90;1.20;;;6.20;99.90;;;;;;7377757;19;20471;-72
2024/03/13 04:57:14;;;;;;;1.30;1.00;;;6.20;99.90;;;;;;7375583;19;20006;-71
2024/03/13 04:59:44;;;;;;;3.13;1.27;;;6.20;99.90;;;;;;7378581;19;20016;-72
2024/03/13 05:02:14;;;;;;;1.90;1.23;;;6.20;99.90;;;;;;7377577;19;20071;-72
2024/03/13 05:04:44;;;;;;;1.77;1.13;;;6.20;99.90;;;;;;7377532;19;20007;-72
2024/03/13 05:07:15;;;;;;;1.90;1.30;;;6.20;99.90;;;;;;7375661;19;20451;-72
2024/03/13 05:09:49;;;;;;;2.35;1.40;;;6.10;99.90;;;;;;7377068;19;20006;-71
2024/03/13 05:12:19;;;;;;;2.90;1.35;;;6.20;99.90;;;;;;7377547;19;20371;-71
2024/03/13 05:14:50;;;;;;;1.67;1.27;;;6.20;99.90;;;;;;7377012;19;20018;-71
2024/03/13 05:17:20;;;;;;;2.58;1.50;;;6.20;99.90;;;;;;7378523;19;20283;-71
2024/03/13 05:19:50;;;;;;;3.25;1.60;;;6.20;99.90;;;;;;7378024;19;20010;-71
2024/03/13 05:22:20;;;;;;;2.13;1.27;;;6.30;99.90;;;;;;7376995;19;20011;-71
2024/03/13 05:24:52;;;;;;;1.90;1.50;;;6.20;99.90;;;;;;7376223;19;20483;-72
2024/03/13 05:27:24;;;;;;;3.45;1.45;;;6.20;99.90;;;;;;7377302;19;20011;-71
2024/03/13 05:29:55;;;;;;;2.17;1.52;;;6.20;99.90;;;;;;7377512;19;20048;-71
2024/03/13 05:32:25;;;;;;;1.88;1.33;;;6.30;99.90;;;;;;7377034;19;20015;-71
2024/03/13 05:34:55;;;;;;;3.25;1.50;;;6.20;99.90;;;;;;7374923;19;20090;-72
2024/03/13 05:37:25;;;;;;;1.98;1.33;;;6.20;99.90;;;;;;7374353;19;20380;-72
2024/03/13 05:39:58;;;;;;;2.45;1.52;;;6.20;99.90;;;;;;7375403;19;20007;-72
2024/03/13 05:42:28;;;;;;;2.65;1.83;;;6.20;99.90;;;;;;7374130;19;20015;-72
2024/03/13 05:44:59;;;;;;;2.88;1.95;;;6.30;99.90;;;;;;7373314;19;20157;-72
2024/03/13 05:47:29;;;;;;;2.05;1.80;;;6.30;99.90;;;;;;7373391;19;20014;-72
2024/03/13 05:49:58;;;;;;;3.20;1.75;;;6.30;99.90;;;;;;7374156;19;20806;-72
2024/03/13 05:52:28;;;;;;;3.40;1.50;;;6.20;99.90;;;;;;7375105;19;20007;-72
2024/03/13 05:55:01;;;;;;;3.72;2.10;;;6.20;99.90;;;;;;7373169;19;20018;-72
2024/03/13 05:57:32;;;;;;;3.50;2.00;;;6.20;99.90;;;;;;7377078;19;20348;-72
2024/03/13 06:00:07;;;;;;;4.15;2.85;;;6.30;99.90;;;;;;7376776;19;20010;-73
2024/03/13 06:02:40;;;;;;;3.45;2.35;;;6.30;99.90;;;;;;7379528;19;20425;-72
2024/03/13 06:05:14;;;;;;;3.97;2.10;;;6.40;99.90;;;;;;7381540;19;20021;-72
2024/03/13 06:07:46;;;;;;;6.65;2.35;;;6.30;99.90;;;;;;7384682;19;20010;-72
2024/03/13 06:10:19;;;;;;;4.07;2.55;;;6.30;99.90;;;;;;7380238;19;20007;-73
2024/03/13 06:12:49;;;;;;;4.65;2.70;;;6.40;99.90;;;;;;7383415;19;20685;-73
2024/03/13 06:15:19;;;;;;;3.35;2.88;;;6.30;99.90;;;;;;7382234;19;20010;-71
2024/03/13 06:17:49;;;;;;;4.40;3.05;;;6.30;99.90;;;;;;7382221;19;20478;-72
2024/03/13 06:20:20;;;;;;;5.55;3.05;;;6.40;99.90;;;;;;7383103;19;20013;-72
2024/03/13 06:22:51;;;;;;;5.05;3.10;;;6.40;99.90;;;;;;7382241;19;20054;-72
2024/03/13 06:25:26;;;;;;;4.70;3.50;;;6.50;99.90;;;;;;7383249;19;20010;-73
2024/03/13 06:29:55;;;;;;;4.97;3.25;;;6.50;99.90;;;;;;7383207;19;20021;-71
2024/03/13 06:30:45;;;;;;;8.05;4.15;;;6.50;99.90;;;;;;7379635;19;20078;-72
2024/03/13 06:33:15;;;;;;;6.38;4.50;;;6.50;99.90;;;;;;7385115;19;20073;-71
2024/03/13 06:35:45;;;;;;;9.25;5.00;;;6.60;99.90;;;;;;7382636;19;20010;-71
2024/03/13 06:38:15;;;;;;;6.60;5.03;;;6.60;99.90;;;;;;7381796;19;20007;-72
2024/03/13 06:40:48;;;;;;;10.52;6.30;;;6.60;99.90;;;;;;7380991;19;20355;-72
2024/03/13 06:43:18;;;;;;;7.18;5.85;;;6.70;99.90;;;;;;7381547;19;20038;-71
2024/03/13 06:45:50;;;;;;;11.18;6.95;;;6.80;99.90;;;;;;7380434;19;20010;-71
2024/03/13 06:48:21;;;;;;;9.10;6.85;;;6.90;99.90;;;;;;7381924;19;20441;-72
2024/03/13 06:50:51;;;;;;;8.35;7.10;;;6.90;99.90;;;;;;7381675;19;20015;-71
2024/03/13 06:53:21;;;;;;;14.07;9.15;;;7.00;99.90;;;;;;7381723;19;20026;-71
2024/03/13 06:55:54;;;;;;;12.57;9.07;;;7.00;99.90;;;;;;7378478;19;20013;-70
2024/03/13 06:58:24;;;;;;;12.75;9.13;;;7.00;99.90;;;;;;7381459;19;20026;-71
2024/03/13 07:00:55;;;;;;;11.00;8.48;;;7.10;99.90;;;;;;7381606;19;20035;-71
2024/03/13 07:03:26;;;;;;;12.07;8.40;;;7.20;99.90;;;;;;7380132;19;20014;-71
2024/03/13 07:05:56;;;;;;;11.63;8.48;;;7.20;99.90;;;;;;7378731;19;20018;-72
2024/03/13 07:08:26;;;;;;;13.18;9.20;;;7.30;99.90;;;;;;7381204;19;20786;-71
2024/03/13 07:10:56;;;;;;;15.77;9.07;;;7.30;99.90;;;;;;7381230;19;20836;-71
2024/03/13 07:13:26;;;;;;;9.98;8.25;;;7.40;99.90;;;;;;7381043;19;20010;-71
2024/03/13 07:15:56;;;;;;;10.73;7.82;;;7.40;99.90;;;;;;7377849;19;20044;-72
2024/03/13 07:18:26;;;;;;;10.57;8.30;;;7.50;99.90;;;;;;7380158;19;20018;-72
2024/03/13 07:20:57;;;;;;;9.27;7.45;;;7.50;99.90;;;;;;7378894;19;20014;-70
2024/03/13 07:23:28;;;;;;;9.55;7.43;;;7.60;99.90;;;;;;7378102;19;20049;-71
2024/03/13 07:26:03;;;;;;;8.70;7.03;;;7.70;99.90;;;;;;7378003;19;20101;-71
2024/03/13 07:28:33;;;;;;;8.48;7.32;;;7.70;99.90;;;;;;7380000;19;20006;-71
2024/03/13 07:31:03;;;;;;;8.20;5.70;;;7.90;99.90;;;;;;7378670;19;20002;-71
2024/03/13 07:33:33;;;;;;;7.50;5.95;;;7.80;99.90;;;;;;7378106;19;20756;-71
2024/03/13 07:36:04;;;;;;;7.15;6.32;;;7.80;99.90;;;;;;7375954;19;20022;-70
2024/03/13 07:38:34;;;;;;;9.00;7.05;;;7.80;99.90;;;;;;7379003;19;20018;-71
2024/03/13 07:41:12;;;;;;;11.35;7.53;;;7.70;99.90;;;;;;7379189;19;20367;-72
2024/03/13 07:43:42;;;;;;;9.27;8.00;;;7.80;99.90;;;;;;7378784;19;20007;-72
2024/03/13 07:46:15;;;;;;;9.35;7.80;;;7.80;99.90;;;;;;7375699;19;20027;-71
2024/03/13 07:48:46;;;;;;;9.35;7.53;;;7.90;99.90;;;;;;7374854;19;20042;-73
2024/03/13 07:51:16;;;;;;;9.95;8.45;;;7.90;99.10;;;;;;7379933;19;20046;-73
2024/03/13 07:53:47;;;;;;;13.15;9.73;;;7.90;96.50;;;;;;7377315;19;20014;-72
2024/03/13 07:56:20;;;;;;;13.05;8.90;;;8.00;95.90;;;;;;7378383;19;20024;-73
2024/03/13 07:58:51;;;;;;;10.40;8.00;;;8.00;93.90;;;;;;7378626;19;20459;-71
2024/03/13 08:01:22;;;;;;;10.88;7.32;;;8.00;91.50;;;;;;7379538;19;20011;-72
2024/03/13 08:03:52;;;;;;;8.65;7.65;;;8.00;83.90;;;;;;7375273;19;20033;-71
2024/03/13 08:06:22;;;;;;;8.57;7.63;;;8.00;79.90;;;;;;7375905;19;20037;-71
2024/03/13 08:09:06;;;;;;;15.18;7.78;;;8.10;81.50;;;;;;7379025;19;20048;-73
2024/03/13 08:11:54;;;;;;;10.05;7.25;;;8.20;76.30;;;;;;7379838;19;20057;-72
2024/03/13 08:14:38;;;;;;;8.70;7.05;;;8.10;70.30;;;;;;6866723;19;2004691;-72
2024/03/13 08:17:22;;;;;;;7.63;6.40;;;8.20;72.80;;;;;;7374715;19;20466;-70
2024/03/13 08:20:07;;;;;;;10.18;6.65;;;8.20;61.70;;;;;;6866116;19;2004631;-71
2024/03/13 08:22:51;;;;;;;10.13;6.63;;;8.20;60.20;;;;;;7376345;19;20474;-72
2024/03/13 08:25:35;;;;;;;8.27;6.33;;;8.20;66.70;;;;;;7371325;19;20006;-72
2024/03/13 08:28:21;;;;;;;9.57;6.80;;;8.30;68.80;;;;;;7377084;19;20659;-72
2024/03/13 08:31:06;;;;;;;8.75;7.05;;;8.50;83.00;;;;;;7373680;19;20389;-70
2024/03/13 08:33:50;;;;;;;9.35;7.32;;;8.50;61.30;;;;;;7376785;19;23900;-71
2024/03/13 08:36:34;;;;;;;8.65;7.38;;;8.40;51.50;;;;;;7370122;19;20799;-72
2024/03/13 08:39:25;;;;;;;11.07;8.38;;;8.40;69.80;;;;;;7374114;19;20018;-71
2024/03/13 08:42:10;;;;;;;12.95;9.20;;;8.70;92.40;;;;;;7375512;19;20391;-70
2024/03/13 08:44:56;;;;;;;11.07;7.78;;;8.70;86.20;;;;;;7375454;19;20053;-71
2024/03/13 08:47:40;;;;;;;9.60;7.88;;;8.80;91.50;;;;;;7372162;19;20014;-71
2024/03/13 08:50:24;;;;;;;9.07;8.05;;;9.00;90.40;;;;;;7378097;19;20013;-71
2024/03/13 08:53:08;;;;;;;9.27;7.93;;;9.10;90.90;;;;;;7376786;19;20026;-71
2024/03/13 08:55:52;;;;;;;10.90;8.13;;;9.10;75.70;;;;;;7375382;19;20474;-71
2024/03/13 08:58:36;;;;;;;11.15;7.68;;;9.20;74.70;;;;;;7375538;19;20026;-70
2024/03/13 09:01:23;;;;;;;9.60;7.97;;;9.10;62.80;;;;;;7376976;19;20014;-70
2024/03/13 09:04:08;;;;;;;10.38;7.72;;;9.10;63.20;;;;;;7375191;19;20067;-70
2024/03/13 09:06:52;;;;;;;11.38;7.97;;;9.10;77.50;;;;;;7375049;19;20015;-70
2024/03/13 09:09:23;;;;;;;13.20;7.85;;;9.40;91.60;;;;;;7376816;19;20006;-70
2024/03/13 09:11:53;;;;;;;7.88;7.00;;;9.40;88.20;;;;;;7376590;19;20637;-71
2024/03/13 09:14:24;;;;;;;11.05;8.27;;;9.30;74.30;;;;;;7375726;19;20245;-71
2024/03/13 09:16:56;;;;;;;10.55;8.48;;;9.60;90.60;;;;;;7375626;19;20011;-71
2024/03/13 09:19:26;;;;;;;8.43;7.38;;;9.60;80.30;;;;;;7369610;19;20014;-71
2024/03/13 09:21:57;;;;;;;8.07;7.28;;;9.50;69.30;;;;;;7374422;19;20474;-71
2024/03/13 09:24:30;;;;;;;9.80;8.80;;;9.40;63.80;;;;;;7376471;19;20739;-71
2024/03/13 09:27:00;;;;;;;10.52;7.85;;;9.60;73.80;;;;;;7373114;19;20030;-71
2024/03/13 09:29:31;;;;;;;9.90;7.25;;;9.60;66.90;;;;;;7374890;19;20030;-72
2024/03/13 09:32:04;;;;;;;12.68;8.75;;;9.50;78.00;;;;;;7375941;19;20034;-72
2024/03/13 09:34:34;;;;;;;11.38;8.43;;;9.70;81.20;;;;;;7374559;19;20014;-71
2024/03/13 09:37:10;;;;;;;13.13;10.73;;;9.70;85.20;;;;;;7377019;19;20365;-71
2024/03/13 09:39:40;;;;;;;15.93;8.25;;;9.80;92.60;;;;;;7384217;19;20060;-71
2024/03/13 09:42:20;;;;;;;8.77;7.90;;;9.60;86.20;;;;;;7382318;19;20029;-71
2024/03/13 09:44:52;;;;;;;8.45;7.55;;;9.60;93.20;;;;;;7380767;19;20018;-71
2024/03/13 09:47:27;;;;;;;9.20;8.25;;;9.60;99.90;;;;;;7381670;19;20011;-71
2024/03/13 09:49:59;;;;;;;8.38;7.47;;;9.70;99.90;;;;;;7380128;19;20039;-71
2024/03/13 09:52:29;;;;;;;10.90;8.02;;;9.70;94.30;;;;;;7383757;19;20021;-71
2024/03/13 09:54:59;;;;;;;8.02;7.22;;;9.90;99.90;;;;;;7379483;19;20006;-71
2024/03/13 09:57:33;;;;;;;8.88;7.25;;;9.90;94.30;;;;;;7381512;19;20484;-71
2024/03/13 10:00:03;;;;;;;9.50;7.57;;;9.90;95.20;;;;;;7381928;19;20484;-72
2024/03/13 10:02:40;;;;;;;8.13;7.32;;;10.00;92.30;;;;;;7379751;19;20015;-71
2024/03/13 10:05:12;;;;;;;7.78;6.97;;;9.80;87.10;;;;;;7378409;19;20018;-71
2024/03/13 10:07:43;;;;;;;6.80;6.05;;;9.80;94.80;;;;;;7380793;19;20006;-72
2024/03/13 10:10:24;;;;;;;8.98;7.00;;;10.00;95.80;;;;;;7379027;19;20047;-70
2024/03/13 10:12:55;;;;;;;8.40;7.50;;;10.20;99.80;;;;;;7382352;19;20367;-71
2024/03/13 10:15:26;;;;;;;7.68;6.88;;;10.10;97.50;;;;;;7379977;19;20512;-71
2024/03/13 10:18:06;;;;;;;7.57;6.80;;;10.20;92.30;;;;;;7379878;19;20023;-71
2024/03/13 10:20:50;;;;;;;7.80;7.00;;;10.20;92.20;;;;;;7380579;19;20010;-73
2024/03/13 10:23:21;;;;;;;7.70;6.90;;;10.20;92.00;;;;;;7378002;19;20018;-72
2024/03/13 10:25:53;;;;;;;8.25;7.40;;;10.00;81.20;;;;;;7378747;19;20048;-71
2024/03/13 10:28:23;;;;;;;8.27;7.20;;;10.10;94.40;;;;;;7378862;19;20762;-71
2024/03/13 10:30:53;;;;;;;7.70;6.90;;;10.20;94.70;;;;;;7379958;19;20031;-72
2024/03/13 10:33:26;;;;;;;7.70;6.72;;;10.20;96.30;;;;;;7380267;19;20011;-71
2024/03/13 10:35:56;;;;;;;9.07;8.18;;;10.10;92.40;;;;;;7378942;19;20078;-73
2024/03/13 10:38:28;;;;;;;7.32;6.63;;;10.40;99.90;;;;;;7380423;19;20003;-72
2024/03/13 10:40:58;;;;;;;8.15;6.63;;;10.30;81.60;;;;;;7379395;19;20027;-72
2024/03/13 10:43:31;;;;;;;7.05;6.32;;;10.40;92.20;;;;;;7380330;19;20408;-72
2024/03/13 10:46:01;;;;;;;6.88;6.15;;;10.40;88.30;;;;;;7377827;19;20010;-71
2024/03/13 10:48:35;;;;;;;7.25;6.10;;;10.50;83.90;;;;;;7378119;19;20351;-72
2024/03/13 10:51:05;;;;;;;7.40;6.68;;;10.60;75.40;;;;;;7381538;19;20014;-71
2024/03/13 10:53:35;;;;;;;6.15;5.55;;;10.70;88.80;;;;;;7380175;19;20404;-71
2024/03/13 10:56:07;;;;;;;6.63;5.90;;;10.70;62.20;;;;;;7379476;19;20014;-71
2024/03/13 10:58:38;;;;;;;6.60;6.00;;;10.70;66.30;;;;;;7378997;19;20500;-71
2024/03/13 11:01:16;;;;;;;9.73;6.15;;;10.70;64.80;;;;;;7379359;19;20019;-72
2024/03/13 11:04:01;;;;;;;7.13;6.43;;;10.90;75.90;;;;;;7379388;19;20017;-71
2024/03/13 11:06:32;;;;;;;9.18;7.05;;;10.70;69.60;;;;;;7353815;19;20015;-71
2024/03/13 11:09:03;;;;;;;7.50;6.72;;;10.70;81.70;;;;;;7379646;19;20006;-71
2024/03/13 11:11:37;;;;;;;8.02;6.95;;;10.60;87.70;;;;;;7380078;19;20027;-71
2024/03/13 11:14:07;;;;;;;9.00;7.68;;;10.60;91.80;;;;;;7379557;19;20011;-72
2024/03/13 11:16:42;;;;;;;8.80;7.60;;;10.60;94.60;;;;;;7353530;19;20431;-72
2024/03/13 11:19:23;;;;;;;9.85;8.20;;;10.50;99.90;;;;;;7378629;19;20015;-72
2024/03/13 11:21:59;;;;;;;10.75;7.88;;;10.30;97.60;;;;;;7378276;19;20455;-71
2024/03/13 11:24:35;;;;;;;12.50;10.30;;;10.50;99.90;;;;;;7371156;19;20013;-71
2024/03/13 11:27:11;;;;;;;10.13;8.57;;;10.70;99.90;;;;;;7376772;19;20007;-71
2024/03/13 11:29:44;;;;;;;10.27;8.65;;;10.60;99.90;;;;;;7378497;19;20381;-71
2024/03/13 11:32:16;;;;;;;8.63;6.97;;;10.60;99.90;;;;;;7377522;19;20498;-71
2024/03/13 11:34:50;;;;;;;9.18;7.47;;;10.60;99.90;;;;;;7377547;19;20014;-71
2024/03/13 11:37:22;;;;;;;8.13;7.30;;;10.60;99.90;;;;;;7378552;19;20002;-72
2024/03/13 11:39:55;;;;;;;9.02;7.88;;;10.80;99.90;;;;;;7379271;19;20507;-71
2024/03/13 11:42:32;;;;;;;10.68;8.02;;;10.80;99.90;;;;;;7378495;19;20006;-71
2024/03/13 11:45:15;;;;;;;7.38;6.60;;;10.80;99.90;;;;;;7376881;19;20014;-72
2024/03/13 11:47:51;;;;;;;9.00;7.20;;;10.80;99.90;;;;;;7373106;19;20011;-71
2024/03/13 11:50:24;;;;;;;8.80;6.88;;;10.70;98.50;;;;;;7379263;19;20006;-72
2024/03/13 11:53:09;;;;;;;9.00;6.50;;;10.70;99.90;;;;;;7377724;19;20006;-72
2024/03/13 11:55:39;;;;;;;8.63;6.73;;;10.70;99.90;;;;;;7374801;19;20027;-71
2024/03/13 11:58:21;;;;;;;8.00;7.20;;;10.70;99.90;;;;;;7377418;19;20696;-72
2024/03/13 12:00:51;;;;;;;9.82;7.15;;;10.70;99.90;;;;;;7372186;19;20010;-71
2024/03/13 12:03:22;;;;;;;8.52;7.53;;;10.70;99.90;;;;;;7377214;19;20010;-71
2024/03/13 12:05:56;;;;;;;8.27;7.47;;;10.70;99.90;;;;;;7376006;19;20010;-72
2024/03/13 12:08:26;;;;;;;9.15;7.65;;;10.80;99.90;;;;;;7376646;19;20007;-72
2024/03/13 12:10:56;;;;;;;10.60;8.82;;;10.80;99.90;;;;;;7375742;19;20010;-73
2024/03/13 12:13:30;;;;;;;8.45;7.28;;;10.90;99.90;;;;;;7377528;19;20074;-72
2024/03/13 12:16:00;;;;;;;7.65;6.35;;;11.10;99.90;;;;;;7376061;19;20023;-72
2024/03/13 12:18:30;;;;;;;7.97;6.05;;;11.00;99.90;;;;;;7378790;19;20612;-72
2024/03/13 12:21:04;;;;;;;7.15;5.43;;;11.20;99.90;;;;;;7377412;19;20013;-71
2024/03/13 12:23:35;;;;;;;6.78;6.03;;;11.30;99.90;;;;;;7380037;19;20018;-71
2024/03/13 12:26:05;;;;;;;5.70;5.20;;;11.20;99.90;;;;;;7377156;19;20014;-72
2024/03/13 12:28:35;;;;;;;4.50;4.10;;;11.10;99.90;;;;;;7376873;19;20002;-72
2024/03/13 12:31:06;;;;;;;5.00;4.50;;;11.00;99.90;;;;;;7376339;19;20439;-72
2024/03/13 12:33:40;;;;;;;5.40;4.93;;;11.10;99.90;;;;;;7378862;19;20094;-72
2024/03/13 12:36:13;;;;;;;4.50;4.10;;;11.30;99.90;;;;;;7376801;19;20006;-73
2024/03/13 12:38:44;;;;;;;4.28;3.58;;;11.30;99.90;;;;;;7378306;19;20023;-72
2024/03/13 12:41:15;;;;;;;5.22;4.68;;;11.20;99.70;;;;;;7376732;19;20011;-72
2024/03/13 12:43:46;;;;;;;5.63;5.07;;;11.50;99.90;;;;;;7375161;19;20421;-72
2024/03/13 12:46:16;;;;;;;5.00;4.10;;;11.50;99.90;;;;;;7375129;19;20546;-72
2024/03/13 12:48:46;;;;;;;4.40;3.75;;;11.20;99.90;;;;;;7376474;19;20014;-72
2024/03/13 12:51:20;;;;;;;4.43;3.78;;;11.30;99.90;;;;;;7377226;19;20078;-72
2024/03/13 12:53:50;;;;;;;4.78;3.50;;;11.40;99.90;;;;;;7376173;19;20034;-73
2024/03/13 12:56:20;;;;;;;5.57;4.10;;;11.20;99.90;;;;;;7374396;19;20023;-72
2024/03/13 12:58:51;;;;;;;4.82;4.30;;;11.50;99.90;;;;;;7376176;19;20031;-72
2024/03/13 13:01:21;;;;;;;5.15;4.30;;;11.60;99.90;;;;;;7376603;19;20650;-72
2024/03/13 13:03:51;;;;;;;5.10;4.60;;;11.70;94.50;;;;;;7375320;19;20853;-72
2024/03/13 13:06:23;;;;;;;5.95;4.20;;;12.00;96.50;;;;;;7374163;19;20011;-72
2024/03/13 13:08:54;;;;;;;6.18;4.45;;;11.90;72.70;;;;;;7375899;19;20039;-71
2024/03/13 13:11:24;;;;;;;4.43;4.00;;;11.90;49.60;;;;;;7379100;19;20039;-71
2024/03/13 13:13:54;;;;;;;3.75;3.30;;;12.00;39.30;;;;;;7383878;19;20015;-71
2024/03/13 13:16:24;;;;;;;5.75;3.53;;;11.80;25.50;;;;;;7380701;19;20042;-72
2024/03/13 13:18:55;;;;;;;6.25;3.78;;;12.10;30.30;;;;;;7381323;19;20035;-72
2024/03/13 13:21:28;;;;;;;4.57;3.50;;;12.20;21.50;;;;;;7384152;19;20003;-72
2024/03/13 13:23:58;;;;;;;4.38;3.55;;;12.20;12.40;;;;;;7383367;19;20502;-71
2024/03/13 13:26:28;;;;;;;3.50;3.10;;;12.20;16.30;;;;;;7381226;19;20006;-72
2024/03/13 13:28:58;;;;;;;3.65;3.35;;;12.00;22.70;;;;;;7382085;19;20460;-71
2024/03/13 13:31:32;;;;;;;3.83;2.92;;;12.20;49.10;;;;;;7383510;19;20002;-71
2024/03/13 13:34:04;;;;;;;7.75;3.17;;;12.00;22.40;;;;;;7375625;19;20014;-71
2024/03/13 13:36:38;;;;;;;5.60;3.67;;;12.30;13.20;;;;;;7380972;19;20018;-71